createdAt,value
2019-05-06T00:01:04.803Z,4.10
2019-05-06T00:03:34.439Z,4.10
2019-05-06T00:06:04.124Z,4.10
2019-05-06T00:08:34.549Z,4.10
2019-05-06T00:11:04.901Z,4.10
2019-05-06T00:13:34.431Z,4.10
2019-05-06T00:16:03.963Z,4.00
2019-05-06T00:18:34.187Z,4.00
2019-05-06T00:21:04.678Z,4.00
2019-05-06T00:23:38.846Z,3.90
2019-05-06T00:26:20.133Z,3.90
2019-05-06T00:28:53.898Z,3.90
2019-05-06T00:31:24.001Z,3.80
2019-05-06T00:33:53.989Z,3.80
2019-05-06T00:36:23.855Z,3.70
2019-05-06T00:38:55.662Z,3.70
2019-05-06T00:41:29.852Z,3.70
2019-05-06T00:43:59.360Z,3.70
2019-05-06T00:46:28.561Z,3.60
2019-05-06T00:48:57.394Z,3.60
2019-05-06T00:51:26.648Z,3.60
2019-05-06T00:54:00.705Z,3.60
2019-05-06T00:56:29.462Z,3.60
2019-05-06T00:58:58.494Z,3.60
2019-05-06T01:01:29.794Z,3.50
2019-05-06T01:03:58.474Z,3.50
2019-05-06T01:06:27.318Z,3.50
2019-05-06T01:08:56.258Z,3.50
2019-05-06T01:11:25.450Z,3.50
2019-05-06T01:14:05.664Z,3.50
2019-05-06T01:16:34.619Z,3.40
2019-05-06T01:19:04.694Z,3.40
2019-05-06T01:21:34.311Z,3.40
2019-05-06T01:24:04.958Z,3.40
2019-05-06T01:26:33.929Z,3.40
2019-05-06T01:29:03.992Z,3.40
2019-05-06T01:31:42.094Z,3.40
2019-05-06T01:34:04.333Z,3.30
2019-05-06T01:36:34.546Z,3.30
2019-05-06T01:39:22.127Z,3.30
2019-05-06T01:42:07.971Z,3.20
2019-05-06T01:44:37.345Z,3.20
2019-05-06T01:47:06.189Z,3.20
2019-05-06T01:49:34.980Z,3.20
2019-05-06T01:52:04.329Z,3.20
2019-05-06T01:57:13.577Z,3.10
2019-05-06T01:59:44.205Z,3.10
2019-05-06T02:02:14.336Z,3.20
2019-05-06T02:04:44.381Z,3.10
2019-05-06T02:07:14.477Z,3.10
2019-05-06T02:09:44.741Z,3.10
2019-05-06T02:12:14.092Z,3.10
2019-05-06T02:14:43.759Z,3.00
2019-05-06T02:17:14.414Z,3.00
2019-05-06T02:19:43.835Z,3.00
2019-05-06T02:22:18.662Z,3.00
2019-05-06T02:24:59.999Z,3.00
2019-05-06T02:27:29.272Z,3.00
2019-05-06T02:30:05.674Z,3.00
2019-05-06T02:32:55.717Z,3.00
2019-05-06T02:35:34.460Z,3.00
2019-05-06T02:38:04.796Z,3.00
2019-05-06T02:40:33.443Z,3.00
2019-05-06T02:43:03.346Z,3.00
2019-05-06T02:45:33.689Z,3.00
2019-05-06T02:48:22.711Z,3.00
2019-05-06T02:50:59.056Z,3.00
2019-05-06T02:53:28.238Z,3.00
2019-05-06T02:55:57.543Z,2.90
2019-05-06T02:58:26.636Z,2.90
2019-05-06T03:00:55.774Z,2.90
2019-05-06T03:03:24.827Z,2.90
2019-05-06T03:05:53.725Z,2.80
2019-05-06T03:08:23.747Z,2.80
2019-05-06T03:10:53.630Z,2.80
2019-05-06T03:13:23.606Z,2.80
2019-05-06T03:15:54.131Z,2.80
2019-05-06T03:18:23.893Z,2.70
2019-05-06T03:21:13.590Z,2.70
2019-05-06T03:23:44.849Z,2.70
2019-05-06T03:26:13.892Z,2.70
2019-05-06T03:28:44.092Z,2.70
2019-05-06T03:31:16.211Z,2.70
2019-05-06T03:33:58.497Z,2.60
2019-05-06T03:36:24.458Z,2.60
2019-05-06T03:38:45.962Z,2.60
2019-05-06T03:41:14.824Z,2.50
2019-05-06T03:43:43.992Z,2.60
2019-05-06T03:46:24.591Z,2.50
2019-05-06T03:48:56.500Z,2.60
2019-05-06T03:51:25.589Z,2.50
2019-05-06T03:53:56.708Z,2.50
2019-05-06T03:56:26.465Z,2.50
2019-05-06T03:58:57.307Z,2.50
2019-05-06T04:01:26.271Z,2.50
2019-05-06T04:03:57.133Z,2.50
2019-05-06T04:06:26.566Z,2.50
2019-05-06T04:08:56.732Z,2.50
2019-05-06T04:11:26.160Z,2.50
2019-05-06T04:13:55.855Z,2.50
2019-05-06T04:16:37.967Z,2.50
2019-05-06T04:19:13.005Z,2.50
2019-05-06T04:21:57.640Z,2.50
2019-05-06T04:24:48.391Z,2.50
2019-05-06T04:27:53.741Z,2.50
2019-05-06T04:30:25.952Z,2.60
2019-05-06T04:32:55.106Z,2.50
2019-05-06T04:35:24.452Z,2.50
2019-05-06T04:37:54.058Z,2.50
2019-05-06T04:40:23.832Z,2.50
2019-05-06T04:42:53.687Z,2.50
2019-05-06T04:45:23.594Z,2.50
2019-05-06T04:47:53.823Z,2.50
2019-05-06T04:50:24.274Z,2.50
2019-05-06T04:53:04.750Z,2.50
2019-05-06T04:55:35.443Z,2.50
2019-05-06T04:58:05.871Z,2.50
2019-05-06T05:00:36.049Z,2.50
2019-05-06T05:03:05.318Z,2.50
2019-05-06T05:05:34.367Z,2.50
2019-05-06T05:08:03.291Z,2.60
2019-05-06T05:10:57.929Z,2.60
2019-05-06T05:13:46.183Z,2.60
2019-05-06T05:16:22.669Z,2.70
2019-05-06T05:18:58.394Z,2.70
2019-05-06T05:21:27.304Z,2.80
2019-05-06T05:23:56.214Z,2.90
2019-05-06T05:26:25.512Z,3.00
2019-05-06T05:28:54.630Z,3.00
2019-05-06T05:31:23.767Z,3.10
2019-05-06T05:33:52.957Z,3.10
2019-05-06T05:36:23.199Z,3.20
2019-05-06T05:38:52.412Z,3.20
2019-05-06T05:41:23.304Z,3.20
2019-05-06T05:43:57.378Z,3.20
2019-05-06T05:46:26.551Z,3.30
2019-05-06T05:49:07.711Z,3.30
2019-05-06T05:51:37.226Z,3.40
2019-05-06T05:54:06.451Z,3.40
2019-05-06T05:56:35.915Z,3.50
2019-05-06T05:59:05.158Z,3.50
2019-05-06T06:01:34.563Z,3.60
2019-05-06T06:04:03.951Z,3.60
2019-05-06T06:06:33.330Z,3.60
2019-05-06T06:09:03.140Z,3.70
2019-05-06T06:11:38.059Z,3.70
2019-05-06T06:14:26.225Z,3.80
2019-05-06T06:17:26.466Z,3.90
2019-05-06T06:19:59.896Z,4.00
2019-05-06T06:22:29.820Z,4.00
2019-05-06T06:24:58.830Z,4.10
2019-05-06T06:27:29.887Z,4.20
2019-05-06T06:29:58.809Z,4.20
2019-05-06T06:32:29.667Z,4.30
2019-05-06T06:35:14.541Z,4.40
2019-05-06T06:37:52.431Z,4.40
2019-05-06T06:40:23.360Z,4.50
2019-05-06T06:42:56.329Z,4.60
2019-05-06T06:45:25.497Z,4.70
2019-05-06T06:47:54.615Z,4.80
2019-05-06T06:50:23.816Z,4.80
2019-05-06T06:52:52.703Z,4.90
2019-05-06T06:55:22.594Z,5.00
2019-05-06T06:58:13.157Z,5.10
2019-05-06T07:01:03.157Z,5.20
2019-05-06T07:03:37.825Z,5.30
2019-05-06T07:06:26.214Z,5.40
2019-05-06T07:08:55.583Z,5.50
2019-05-06T07:11:24.775Z,5.60
2019-05-06T07:13:54.694Z,5.80
2019-05-06T07:16:23.922Z,5.90
2019-05-06T07:18:52.840Z,6.00
2019-05-06T07:21:53.261Z,6.00
2019-05-06T07:24:22.992Z,6.10
2019-05-06T07:26:56.668Z,6.10
2019-05-06T07:29:26.741Z,6.20
2019-05-06T07:31:56.220Z,6.20
2019-05-06T07:34:24.986Z,6.30
2019-05-06T07:36:53.921Z,6.40
2019-05-06T07:39:23.995Z,6.50
2019-05-06T07:41:56.693Z,6.50
2019-05-06T07:44:52.896Z,6.60
2019-05-06T07:47:42.453Z,6.80
2019-05-06T07:50:13.088Z,6.90
2019-05-06T07:52:44.627Z,6.90
2019-05-06T07:55:13.546Z,6.90
2019-05-06T07:57:42.629Z,6.90
2019-05-06T08:00:12.539Z,7.00
2019-05-06T08:02:42.596Z,7.00
2019-05-06T08:05:12.746Z,7.10
2019-05-06T08:07:42.376Z,7.20
2019-05-06T08:10:13.576Z,7.30
2019-05-06T08:12:42.948Z,7.40
2019-05-06T08:15:12.765Z,7.40
2019-05-06T08:17:42.528Z,7.50
2019-05-06T08:20:13.043Z,7.50
2019-05-06T08:23:04.531Z,7.60
2019-05-06T08:25:48.250Z,7.60
2019-05-06T08:28:17.023Z,7.70
2019-05-06T08:30:45.953Z,7.70
2019-05-06T08:33:15.223Z,7.80
2019-05-06T08:35:44.085Z,7.80
2019-05-06T08:38:13.039Z,7.80
2019-05-06T08:40:43.103Z,7.90
2019-05-06T08:43:13.079Z,8.00
2019-05-06T08:45:42.760Z,8.00
2019-05-06T08:48:12.994Z,8.00
2019-05-06T08:51:02.842Z,8.10
2019-05-06T08:54:00.140Z,8.10
2019-05-06T08:56:29.069Z,8.10
2019-05-06T08:58:57.931Z,8.10
2019-05-06T09:01:47.626Z,8.20
2019-05-06T09:04:16.636Z,8.30
2019-05-06T09:06:46.087Z,8.40
2019-05-06T09:09:14.862Z,8.60
2019-05-06T09:11:44.457Z,8.80
2019-05-06T09:14:14.242Z,8.90
2019-05-06T09:16:44.097Z,9.00
2019-05-06T09:19:13.289Z,9.10
2019-05-06T09:21:46.024Z,9.10
2019-05-06T09:24:13.717Z,9.10
2019-05-06T09:27:03.018Z,9.20
2019-05-06T09:29:38.494Z,9.20
2019-05-06T09:32:13.952Z,9.40
2019-05-06T09:34:59.877Z,9.60
2019-05-06T09:37:28.847Z,9.80
2019-05-06T09:39:57.830Z,10.10
2019-05-06T09:42:27.174Z,10.20
2019-05-06T09:44:56.032Z,10.30
2019-05-06T09:48:03.684Z,10.20
2019-05-06T09:50:46.108Z,10.10
2019-05-06T09:53:22.933Z,10.00
2019-05-06T09:56:13.327Z,10.00
2019-05-06T09:58:44.299Z,9.90
2019-05-06T10:01:13.583Z,10.00
2019-05-06T10:03:42.910Z,10.00
2019-05-06T10:06:13.100Z,10.00
2019-05-06T10:08:42.543Z,10.10
2019-05-06T10:11:11.316Z,10.20
2019-05-06T10:13:40.279Z,10.20
2019-05-06T10:16:09.208Z,10.30
2019-05-06T10:18:38.130Z,10.30
2019-05-06T10:21:07.300Z,10.40
2019-05-06T10:23:36.360Z,10.70
2019-05-06T10:26:05.416Z,10.70
2019-05-06T10:28:48.872Z,10.70
2019-05-06T10:31:18.682Z,10.60
2019-05-06T10:34:05.724Z,10.60
2019-05-06T10:36:50.524Z,10.60
2019-05-06T10:39:22.891Z,10.60
2019-05-06T10:42:13.026Z,10.50
2019-05-06T10:44:58.268Z,10.40
2019-05-06T10:47:27.415Z,10.10
2019-05-06T10:49:56.518Z,9.90
2019-05-06T10:52:29.881Z,9.80
2019-05-06T10:54:58.900Z,9.70
2019-05-06T10:57:40.317Z,9.70
2019-05-06T11:00:08.367Z,9.60
2019-05-06T11:02:59.658Z,9.60
2019-05-06T11:05:28.862Z,9.60
2019-05-06T11:07:57.821Z,9.70
2019-05-06T11:10:31.261Z,9.60
2019-05-06T11:12:57.373Z,9.60
2019-05-06T11:15:26.252Z,9.60
2019-05-06T11:17:55.393Z,9.60
2019-05-06T11:20:24.347Z,9.70
2019-05-06T11:22:53.272Z,9.70
2019-05-06T11:25:23.065Z,9.80
2019-05-06T11:27:52.647Z,9.90
2019-05-06T11:30:46.852Z,10.00
2019-05-06T11:33:32.770Z,10.10
2019-05-06T11:36:04.910Z,10.20
2019-05-06T11:38:34.047Z,10.30
2019-05-06T11:41:02.884Z,10.40
2019-05-06T11:43:32.479Z,10.50
2019-05-06T11:46:01.398Z,10.50
2019-05-06T11:48:32.629Z,10.40
2019-05-06T11:51:03.085Z,10.40
2019-05-06T11:53:32.588Z,10.30
2019-05-06T11:56:02.780Z,10.20
2019-05-06T11:58:48.958Z,10.10
2019-05-06T12:01:26.887Z,10.10
2019-05-06T12:03:55.944Z,10.00
2019-05-06T12:06:24.948Z,9.90
2019-05-06T12:08:53.810Z,9.90
2019-05-06T12:11:23.696Z,9.80
2019-05-06T12:13:53.502Z,9.70
2019-05-06T12:16:26.213Z,9.70
2019-05-06T12:18:53.123Z,9.60
2019-05-06T12:21:23.786Z,9.60
2019-05-06T12:23:53.898Z,9.60
2019-05-06T12:26:23.103Z,9.60
2019-05-06T12:28:53.138Z,9.60
2019-05-06T12:31:23.354Z,9.60
2019-05-06T12:33:53.447Z,9.70
2019-05-06T12:36:23.368Z,9.70
2019-05-06T12:39:16.134Z,9.80
2019-05-06T12:41:58.637Z,9.90
2019-05-06T12:44:27.479Z,10.00
2019-05-06T12:47:17.514Z,10.10
2019-05-06T12:49:46.911Z,10.30
2019-05-06T12:52:15.944Z,10.40
2019-05-06T12:54:45.029Z,10.40
2019-05-06T12:57:14.069Z,10.50
2019-05-06T12:59:42.976Z,10.60
2019-05-06T13:02:13.198Z,10.60
2019-05-06T13:04:51.494Z,10.70
2019-05-06T13:07:21.264Z,10.70
2019-05-06T13:09:52.259Z,10.80
2019-05-06T13:12:24.329Z,10.90
2019-05-06T13:14:53.855Z,10.90
2019-05-06T13:17:29.295Z,11.00
2019-05-06T13:19:58.791Z,11.10
2019-05-06T13:22:42.289Z,11.20
2019-05-06T13:25:13.503Z,11.10
2019-05-06T13:27:43.079Z,11.00
2019-05-06T13:30:13.093Z,11.00
2019-05-06T13:32:46.174Z,11.00
2019-05-06T13:35:15.538Z,11.00
2019-05-06T13:37:44.411Z,11.00
2019-05-06T13:40:14.226Z,11.00
2019-05-06T13:42:59.189Z,11.00
2019-05-06T13:45:28.337Z,11.10
2019-05-06T13:48:18.644Z,11.20
2019-05-06T13:50:49.419Z,11.30
2019-05-06T13:53:18.563Z,11.40
2019-05-06T13:55:47.574Z,11.50
2019-05-06T13:58:16.652Z,11.60
2019-05-06T14:00:45.621Z,11.70
2019-05-06T14:03:17.438Z,11.80
2019-05-06T14:05:45.381Z,11.80
2019-05-06T14:08:14.236Z,11.80
2019-05-06T14:10:56.501Z,11.80
2019-05-06T14:13:16.503Z,11.90
2019-05-06T14:15:46.143Z,11.90
2019-05-06T14:18:15.199Z,11.90
2019-05-06T14:20:43.975Z,11.90
2019-05-06T14:23:13.909Z,11.90
2019-05-06T14:26:17.637Z,11.90
2019-05-06T14:29:05.493Z,12.00
2019-05-06T14:31:38.179Z,12.00
2019-05-06T14:34:06.966Z,12.20
2019-05-06T14:36:36.089Z,12.40
2019-05-06T14:39:08.069Z,12.60
2019-05-06T14:41:44.605Z,12.60
2019-05-06T14:44:13.222Z,12.70
2019-05-06T14:47:00.593Z,12.90
2019-05-06T14:49:29.769Z,13.00
2019-05-06T14:51:58.812Z,13.20
2019-05-06T14:54:27.654Z,13.30
2019-05-06T14:57:02.522Z,13.30
2019-05-06T14:59:32.977Z,13.30
2019-05-06T15:02:02.663Z,13.30
2019-05-06T15:04:32.557Z,13.20
2019-05-06T15:07:02.289Z,13.30
2019-05-06T15:09:32.914Z,13.40
2019-05-06T15:12:02.460Z,13.50
2019-05-06T15:14:33.116Z,13.40
2019-05-06T15:17:02.411Z,13.40
2019-05-06T15:19:32.185Z,13.30
2019-05-06T15:22:02.278Z,13.40
2019-05-06T15:24:31.271Z,13.30
2019-05-06T15:27:02.592Z,13.30
2019-05-06T15:29:30.984Z,13.40
2019-05-06T15:32:13.241Z,13.40
2019-05-06T15:35:12.672Z,13.30
2019-05-06T15:37:53.603Z,13.30
2019-05-06T15:40:31.938Z,13.20
2019-05-06T15:42:53.736Z,13.10
2019-05-06T15:45:22.904Z,13.00
2019-05-06T15:47:52.463Z,12.90
2019-05-06T15:50:23.041Z,12.80
2019-05-06T15:52:53.888Z,12.60
2019-05-06T15:55:23.587Z,12.50
2019-05-06T15:57:52.786Z,12.40
2019-05-06T16:00:23.064Z,12.30
2019-05-06T16:02:53.129Z,12.20
2019-05-06T16:05:26.542Z,12.10
2019-05-06T16:07:53.117Z,12.00
2019-05-06T16:10:22.718Z,11.80
2019-05-06T16:12:53.442Z,11.70
2019-05-06T16:15:24.745Z,11.50
2019-05-06T16:17:53.447Z,11.50
2019-05-06T16:20:22.806Z,11.40
2019-05-06T16:22:56.748Z,11.30
2019-05-06T16:25:25.887Z,11.20
2019-05-06T16:27:56.363Z,11.10
2019-05-06T16:30:25.765Z,11.00
2019-05-06T16:32:54.613Z,10.90
2019-05-06T16:35:23.869Z,10.80
2019-05-06T16:37:52.730Z,10.60
2019-05-06T16:40:22.949Z,10.60
2019-05-06T16:42:54.351Z,10.50
2019-05-06T16:45:25.547Z,10.40
2019-05-06T16:47:54.336Z,10.20
2019-05-06T16:50:29.700Z,10.10
2019-05-06T16:52:59.026Z,10.00
2019-05-06T16:55:47.067Z,9.90
2019-05-06T16:58:17.204Z,9.80
2019-05-06T17:00:46.505Z,9.80
2019-05-06T17:03:23.101Z,9.70
2019-05-06T17:06:09.213Z,9.70
2019-05-06T17:08:38.469Z,9.70
2019-05-06T17:11:07.574Z,9.60
2019-05-06T17:13:37.802Z,9.50
2019-05-06T17:16:06.969Z,9.50
2019-05-06T17:18:36.119Z,9.40
2019-05-06T17:21:05.057Z,9.30
2019-05-06T17:23:34.182Z,9.30
2019-05-06T17:26:03.272Z,9.20
2019-05-06T17:28:47.475Z,9.20
2019-05-06T17:31:32.269Z,9.20
2019-05-06T17:34:02.494Z,9.20
2019-05-06T17:36:32.994Z,9.10
2019-05-06T17:39:02.854Z,9.10
2019-05-06T17:41:44.384Z,9.10
2019-05-06T17:44:04.048Z,9.10
2019-05-06T17:46:37.840Z,9.10
2019-05-06T17:49:10.161Z,9.00
2019-05-06T17:51:58.640Z,9.00
2019-05-06T17:54:27.777Z,9.00
2019-05-06T17:56:56.944Z,9.00
2019-05-06T17:59:25.767Z,9.00
2019-05-06T18:01:56.645Z,8.90
2019-05-06T18:04:26.087Z,8.90
2019-05-06T18:06:55.448Z,8.90
2019-05-06T18:09:24.480Z,8.90
2019-05-06T18:11:58.777Z,8.80
2019-05-06T18:14:24.334Z,8.80
2019-05-06T18:16:53.991Z,8.80
2019-05-06T18:19:23.048Z,8.80
2019-05-06T18:21:52.775Z,8.70
2019-05-06T18:24:23.105Z,8.70
2019-05-06T18:26:52.996Z,8.70
2019-05-06T18:29:22.382Z,8.70
2019-05-06T18:31:52.490Z,8.70
2019-05-06T18:34:23.238Z,8.60
2019-05-06T18:36:52.608Z,8.60
2019-05-06T18:39:22.504Z,8.60
2019-05-06T18:41:53.095Z,8.60
2019-05-06T18:44:22.676Z,8.60
2019-05-06T18:46:53.007Z,8.50
2019-05-06T18:49:22.499Z,8.50
2019-05-06T18:51:54.068Z,8.50
2019-05-06T18:54:22.147Z,8.50
2019-05-06T18:56:52.185Z,8.50
2019-05-06T18:59:23.112Z,8.40
2019-05-06T19:01:53.885Z,8.40
2019-05-06T19:04:38.043Z,8.40
2019-05-06T19:07:12.756Z,8.30
2019-05-06T19:09:47.243Z,8.30
2019-05-06T19:12:28.947Z,8.30
2019-05-06T19:14:46.919Z,8.30
2019-05-06T19:17:16.152Z,8.30
2019-05-06T19:19:44.926Z,8.30
2019-05-06T19:22:14.183Z,8.20
2019-05-06T19:24:44.749Z,8.20
2019-05-06T19:27:13.924Z,8.20
2019-05-06T19:29:43.240Z,8.10
2019-05-06T19:32:12.497Z,8.10
2019-05-06T19:34:42.391Z,8.10
2019-05-06T19:37:11.371Z,8.00
2019-05-06T19:39:40.165Z,8.00
2019-05-06T19:42:09.002Z,8.00
2019-05-06T19:44:37.855Z,7.90
2019-05-06T19:47:06.695Z,7.90
2019-05-06T19:49:35.506Z,7.90
2019-05-06T19:52:04.687Z,7.90
2019-05-06T19:54:33.634Z,7.80
2019-05-06T19:57:02.699Z,7.80
2019-05-06T19:59:33.030Z,7.80
2019-05-06T20:02:02.293Z,7.80
2019-05-06T20:04:33.224Z,7.70
2019-05-06T20:07:08.412Z,7.70
2019-05-06T20:09:47.700Z,7.70
2019-05-06T20:12:26.259Z,7.70
2019-05-06T20:14:58.181Z,7.60
2019-05-06T20:17:27.019Z,7.60
2019-05-06T20:19:55.791Z,7.60
2019-05-06T20:22:24.585Z,7.60
2019-05-06T20:24:53.430Z,7.60
2019-05-06T20:27:22.545Z,7.50
2019-05-06T20:29:52.293Z,7.50
2019-05-06T20:32:22.663Z,7.50
2019-05-06T20:34:51.520Z,7.50
2019-05-06T20:37:22.274Z,7.40
2019-05-06T20:39:50.830Z,7.40
2019-05-06T20:42:22.131Z,7.40
2019-05-06T20:44:52.381Z,7.40
2019-05-06T20:47:27.722Z,7.40
2019-05-06T20:49:56.527Z,7.40
2019-05-06T20:52:25.685Z,7.30
2019-05-06T20:54:54.784Z,7.30
2019-05-06T20:57:23.595Z,7.30
2019-05-06T20:59:52.705Z,7.30
2019-05-06T21:02:25.655Z,7.20
2019-05-06T21:04:52.694Z,7.20
2019-05-06T21:07:23.098Z,7.20
2019-05-06T21:09:52.568Z,7.20
2019-05-06T21:12:22.344Z,7.20
2019-05-06T21:14:51.472Z,7.20
2019-05-06T21:17:22.366Z,7.20
2019-05-06T21:19:52.038Z,7.10
2019-05-06T21:22:21.161Z,7.10
2019-05-06T21:24:50.283Z,7.10
2019-05-06T21:27:19.094Z,7.10
2019-05-06T21:29:48.611Z,7.10
2019-05-06T21:32:17.988Z,7.10
2019-05-06T21:34:46.756Z,7.00
2019-05-06T21:37:15.853Z,7.00
2019-05-06T21:39:44.942Z,7.00
2019-05-06T21:42:14.166Z,6.90
2019-05-06T21:44:43.265Z,6.90
2019-05-06T21:47:12.130Z,6.90
2019-05-06T21:49:42.140Z,6.90
2019-05-06T21:52:13.144Z,6.90
2019-05-06T21:54:43.389Z,6.90
2019-05-06T21:57:12.852Z,6.90
2019-05-06T21:59:42.769Z,6.90
2019-05-06T22:02:13.549Z,6.90
2019-05-06T22:04:43.293Z,6.80
2019-05-06T22:07:12.507Z,6.80
2019-05-06T22:09:43.062Z,6.80
2019-05-06T22:12:12.314Z,6.80
2019-05-06T22:14:42.269Z,6.80
2019-05-06T22:17:11.345Z,6.80
2019-05-06T22:19:40.178Z,6.70
2019-05-06T22:22:14.674Z,6.70
2019-05-06T22:24:45.347Z,6.70
2019-05-06T22:27:14.748Z,6.70
2019-05-06T22:29:43.604Z,6.70
2019-05-06T22:32:14.975Z,6.70
2019-05-06T22:34:43.502Z,6.70
2019-05-06T22:37:12.828Z,6.70
2019-05-06T22:39:43.509Z,6.70
2019-05-06T22:42:12.605Z,6.60
2019-05-06T22:44:42.876Z,6.60
2019-05-06T22:47:12.255Z,6.60
2019-05-06T22:49:41.476Z,6.60
2019-05-06T22:52:12.445Z,6.60
2019-05-06T22:54:43.068Z,6.60
2019-05-06T22:57:12.139Z,6.60
2019-05-06T22:59:42.707Z,6.50
2019-05-06T23:02:32.111Z,6.50
2019-05-06T23:05:04.239Z,6.60
2019-05-06T23:07:34.380Z,6.50
2019-05-06T23:10:03.302Z,6.50
2019-05-06T23:12:32.580Z,6.50
2019-05-06T23:15:02.639Z,6.50
2019-05-06T23:17:34.287Z,6.50
2019-05-06T23:20:02.816Z,6.50
2019-05-06T23:22:32.100Z,6.50
2019-05-06T23:25:02.114Z,6.50
2019-05-06T23:27:31.251Z,6.50
2019-05-06T23:30:00.380Z,6.50
2019-05-06T23:32:29.706Z,6.50
2019-05-06T23:34:58.478Z,6.50
2019-05-06T23:37:25.926Z,6.50
2019-05-06T23:40:40.082Z,6.50
2019-05-06T23:43:44.940Z,6.50
2019-05-06T23:46:50.112Z,6.50
2019-05-06T23:49:55.287Z,6.40
2019-05-06T23:53:02.803Z,6.40
2019-05-06T23:56:07.749Z,6.40
2019-05-06T23:58:36.782Z,6.30
